createdAt,value
2022-10-28T00:01:54.734Z,5.33
2022-10-28T00:04:25.485Z,7.28
2022-10-28T00:06:56.249Z,6.80
2022-10-28T00:09:26.950Z,7.87
2022-10-28T00:11:58.115Z,5.83
2022-10-28T00:14:29.295Z,6.22
2022-10-28T00:17:00.087Z,6.33
2022-10-28T00:19:30.981Z,4.97
2022-10-28T00:22:01.729Z,5.25
2022-10-28T00:24:34.154Z,5.78
2022-10-28T00:27:04.941Z,5.60
2022-10-28T00:29:35.953Z,5.45
2022-10-28T00:32:07.782Z,4.80
2022-10-28T00:34:38.937Z,4.45
2022-10-28T00:37:09.701Z,4.70
2022-10-28T00:39:40.609Z,4.17
2022-10-28T00:42:12.896Z,4.00
2022-10-28T00:45:04.719Z,4.40
2022-10-28T00:47:56.859Z,4.50
2022-10-28T00:50:36.032Z,5.40
2022-10-28T00:53:10.005Z,5.30
2022-10-28T00:55:40.953Z,4.80
2022-10-28T00:58:13.077Z,5.28
2022-10-28T01:00:50.562Z,4.05
2022-10-28T01:03:24.707Z,3.80
2022-10-28T01:05:56.014Z,4.27
2022-10-28T01:08:29.822Z,4.15
2022-10-28T01:11:18.240Z,4.42
2022-10-28T01:13:54.633Z,3.62
2022-10-28T01:16:42.719Z,3.45
2022-10-28T01:19:35.573Z,3.70
2022-10-28T01:22:17.795Z,3.12
2022-10-28T01:25:00.091Z,2.92
2022-10-28T01:27:55.892Z,3.30
2022-10-28T01:30:36.421Z,3.95
2022-10-28T01:33:33.104Z,2.92
2022-10-28T01:36:09.240Z,3.60
2022-10-28T01:38:57.114Z,3.83
2022-10-28T01:41:52.011Z,3.02
2022-10-28T01:44:26.666Z,4.30
2022-10-28T01:47:14.807Z,3.85
2022-10-28T01:49:48.095Z,3.87
2022-10-28T01:52:21.626Z,3.42
2022-10-28T01:54:55.070Z,4.28
2022-10-28T01:57:29.714Z,3.98
2022-10-28T02:00:01.488Z,3.52
2022-10-28T02:02:34.983Z,3.75
2022-10-28T02:05:08.165Z,3.62
2022-10-28T02:07:40.213Z,3.83
2022-10-28T02:10:19.429Z,3.77
2022-10-28T02:12:53.208Z,3.60
2022-10-28T02:15:32.671Z,3.50
2022-10-28T02:18:29.479Z,3.08
2022-10-28T02:21:05.979Z,3.30
2022-10-28T02:23:45.452Z,3.50
2022-10-28T02:26:24.808Z,3.37
2022-10-28T02:29:01.239Z,3.20
2022-10-28T02:31:49.752Z,3.20
2022-10-28T02:34:25.889Z,3.00
2022-10-28T02:36:59.333Z,2.90
2022-10-28T02:39:32.523Z,2.75
2022-10-28T02:42:12.690Z,2.98
2022-10-28T02:44:45.993Z,2.77
2022-10-28T02:47:20.532Z,3.02
2022-10-28T02:49:55.704Z,2.55
2022-10-28T02:52:29.010Z,2.85
2022-10-28T02:55:02.249Z,2.65
2022-10-28T02:57:35.791Z,3.08
2022-10-28T03:00:20.944Z,2.87
2022-10-28T03:02:51.858Z,2.75
2022-10-28T03:05:22.930Z,2.42
2022-10-28T03:07:54.370Z,2.90
2022-10-28T03:10:26.636Z,2.77
2022-10-28T03:12:59.749Z,2.47
2022-10-28T03:15:30.682Z,2.75
2022-10-28T03:18:01.490Z,3.00
2022-10-28T03:20:32.516Z,2.58
2022-10-28T03:23:09.328Z,2.47
2022-10-28T03:25:43.437Z,2.95
2022-10-28T03:28:33.598Z,2.60
2022-10-28T03:31:04.920Z,2.60
2022-10-28T03:33:37.110Z,2.55
2022-10-28T03:36:08.766Z,2.58
2022-10-28T03:38:39.525Z,2.70
2022-10-28T03:41:11.374Z,2.70
2022-10-28T03:43:42.901Z,2.45
2022-10-28T03:46:14.057Z,2.67
2022-10-28T03:48:45.354Z,2.90
2022-10-28T03:51:16.365Z,2.40
2022-10-28T03:53:47.617Z,2.85
2022-10-28T03:56:18.394Z,2.72
2022-10-28T04:01:23.101Z,2.92
2022-10-28T04:03:55.066Z,2.80
2022-10-28T04:06:33.656Z,2.72
2022-10-28T04:09:06.247Z,2.50
2022-10-28T04:11:49.296Z,2.55
2022-10-28T04:14:21.429Z,2.50
2022-10-28T04:16:53.694Z,3.15
2022-10-28T04:19:26.852Z,2.60
2022-10-28T04:21:59.260Z,2.00
2022-10-28T04:24:31.120Z,2.72
2022-10-28T04:27:02.122Z,3.08
2022-10-28T04:29:33.944Z,3.20
2022-10-28T04:32:04.839Z,2.77
2022-10-28T04:34:35.733Z,3.45
2022-10-28T04:37:07.955Z,3.10
2022-10-28T04:39:40.010Z,2.77
2022-10-28T04:42:11.220Z,2.60
2022-10-28T04:44:41.961Z,3.00
2022-10-28T04:47:12.783Z,2.35
2022-10-28T04:49:44.320Z,2.58
2022-10-28T04:52:15.903Z,3.20
2022-10-28T04:54:46.833Z,2.52
2022-10-28T04:57:17.503Z,2.70
2022-10-28T04:59:49.287Z,2.83
2022-10-28T05:02:21.640Z,2.52
2022-10-28T05:04:53.732Z,2.40
2022-10-28T05:07:24.380Z,2.83
2022-10-28T05:09:58.779Z,3.02
2022-10-28T05:12:32.272Z,2.90
2022-10-28T05:15:03.446Z,2.90
2022-10-28T05:17:35.449Z,3.00
2022-10-28T05:20:07.325Z,2.70
2022-10-28T05:22:38.205Z,2.67
2022-10-28T05:25:10.652Z,2.77
2022-10-28T05:27:43.308Z,2.77
2022-10-28T05:30:34.352Z,2.50
2022-10-28T05:33:08.401Z,3.15
2022-10-28T05:35:47.203Z,2.87
2022-10-28T05:38:18.572Z,2.70
2022-10-28T05:41:28.439Z,2.83
2022-10-28T05:43:59.664Z,2.83
2022-10-28T05:46:35.598Z,2.20
2022-10-28T05:49:07.547Z,3.27
2022-10-28T05:51:38.603Z,2.67
2022-10-28T05:54:09.985Z,3.05
2022-10-28T05:56:41.218Z,2.60
2022-10-28T05:59:13.595Z,2.95
2022-10-28T06:01:44.566Z,2.87
2022-10-28T06:04:17.530Z,2.90
2022-10-28T06:06:48.588Z,2.90
2022-10-28T06:09:20.071Z,2.80
2022-10-28T06:11:51.081Z,2.87
2022-10-28T06:14:26.423Z,2.92
2022-10-28T06:16:57.345Z,3.05
2022-10-28T06:19:28.268Z,3.30
2022-10-28T06:21:59.017Z,2.67
2022-10-28T06:24:29.854Z,2.70
2022-10-28T06:27:01.365Z,2.85
2022-10-28T06:29:32.141Z,3.15
2022-10-28T06:32:03.796Z,3.00
2022-10-28T06:34:35.019Z,2.80
2022-10-28T06:37:07.855Z,2.65
2022-10-28T06:39:42.248Z,2.65
2022-10-28T06:42:13.046Z,3.00
2022-10-28T06:44:46.800Z,3.40
2022-10-28T06:47:19.177Z,2.37
2022-10-28T06:49:50.470Z,3.02
2022-10-28T06:52:23.123Z,3.10
2022-10-28T06:54:54.009Z,2.83
2022-10-28T06:57:26.955Z,2.90
2022-10-28T06:59:57.010Z,3.02
2022-10-28T07:02:27.952Z,2.72
2022-10-28T07:04:59.463Z,3.08
2022-10-28T07:07:32.030Z,2.87
2022-10-28T07:10:03.398Z,2.85
2022-10-28T07:12:34.188Z,2.70
2022-10-28T07:15:05.012Z,2.60
2022-10-28T07:17:40.628Z,2.85
2022-10-28T07:20:12.447Z,2.55
2022-10-28T07:22:43.231Z,2.60
2022-10-28T07:25:13.904Z,2.98
2022-10-28T07:27:49.014Z,2.92
2022-10-28T07:30:25.095Z,2.90
2022-10-28T07:32:57.215Z,2.42
2022-10-28T07:35:28.754Z,2.80
2022-10-28T07:38:09.079Z,3.08
2022-10-28T07:40:44.105Z,2.80
2022-10-28T07:43:14.926Z,2.45
2022-10-28T07:45:49.090Z,3.08
2022-10-28T07:48:19.913Z,3.20
2022-10-28T07:50:52.679Z,3.08
2022-10-28T07:53:27.893Z,2.95
2022-10-28T07:56:06.919Z,3.37
2022-10-28T07:58:39.045Z,2.90
2022-10-28T08:01:11.493Z,3.37
2022-10-28T08:03:42.648Z,2.85
2022-10-28T08:06:17.258Z,3.10
2022-10-28T08:08:50.348Z,3.12
2022-10-28T08:11:24.233Z,3.10
2022-10-28T08:13:57.060Z,3.05
2022-10-28T08:16:29.448Z,3.27
2022-10-28T08:19:02.939Z,3.05
2022-10-28T08:21:35.342Z,3.33
2022-10-28T08:24:06.506Z,3.12
2022-10-28T08:26:37.723Z,3.12
2022-10-28T08:29:09.935Z,3.10
2022-10-28T08:31:41.010Z,3.50
2022-10-28T08:34:12.948Z,2.85
2022-10-28T08:36:44.526Z,3.20
2022-10-28T08:39:15.846Z,3.50
2022-10-28T08:42:23.942Z,3.45
2022-10-28T08:45:15.601Z,3.70
2022-10-28T08:47:59.382Z,3.33
2022-10-28T08:50:32.670Z,3.07
2022-10-28T08:53:10.384Z,3.77
2022-10-28T08:55:47.329Z,3.20
2022-10-28T08:58:23.701Z,3.20
2022-10-28T09:00:56.912Z,2.90
2022-10-28T09:03:42.357Z,2.70
2022-10-28T09:06:13.846Z,3.70
2022-10-28T09:08:50.275Z,3.20
2022-10-28T09:11:29.405Z,3.12
2022-10-28T09:14:08.215Z,3.12
2022-10-28T09:16:53.562Z,3.55
2022-10-28T09:19:27.161Z,3.00
2022-10-28T09:22:30.584Z,3.35
2022-10-28T09:25:35.801Z,3.17
2022-10-28T09:28:31.710Z,3.40
2022-10-28T09:31:11.047Z,3.37
2022-10-28T09:33:45.479Z,3.27
2022-10-28T09:36:21.736Z,3.30
2022-10-28T09:38:54.936Z,3.47
2022-10-28T09:41:43.778Z,3.37
2022-10-28T09:44:23.268Z,3.17
2022-10-28T09:46:59.827Z,3.33
2022-10-28T09:52:16.374Z,3.85
2022-10-28T09:54:50.234Z,3.58
2022-10-28T09:57:23.378Z,3.75
2022-10-28T10:00:06.139Z,3.58
2022-10-28T10:02:39.134Z,3.52
2022-10-28T10:05:18.292Z,3.95
2022-10-28T10:07:58.662Z,4.00
2022-10-28T10:10:32.352Z,3.70
2022-10-28T10:13:05.719Z,3.33
2022-10-28T10:15:39.082Z,3.58
2022-10-28T10:18:12.478Z,3.77
2022-10-28T10:21:01.090Z,3.22
2022-10-28T10:23:41.668Z,3.08
2022-10-28T10:26:18.009Z,3.37
2022-10-28T10:29:04.016Z,3.65
2022-10-28T10:31:32.560Z,3.58
2022-10-28T10:34:04.898Z,3.80
2022-10-28T10:36:40.609Z,4.05
2022-10-28T10:39:24.363Z,4.07
2022-10-28T10:42:02.710Z,3.47
2022-10-28T10:44:56.103Z,4.87
2022-10-28T10:47:26.889Z,4.20
2022-10-28T10:50:00.239Z,4.67
2022-10-28T10:52:37.407Z,11.40
2022-10-28T10:55:18.094Z,6.37
2022-10-28T10:57:52.914Z,5.70
2022-10-28T11:00:28.879Z,4.70
2022-10-28T11:03:01.960Z,5.03
2022-10-28T11:05:41.158Z,4.97
2022-10-28T11:08:19.642Z,5.22
2022-10-28T11:10:54.003Z,5.08
2022-10-28T11:13:29.532Z,5.42
2022-10-28T11:16:05.851Z,6.05
2022-10-28T11:18:48.379Z,5.58
2022-10-28T11:21:33.345Z,4.92
2022-10-28T11:24:12.665Z,4.90
2022-10-28T11:26:46.266Z,6.65
2022-10-28T11:29:29.252Z,7.03
2022-10-28T11:32:09.545Z,5.60
2022-10-28T11:35:11.841Z,6.55
2022-10-28T11:37:54.080Z,6.53
2022-10-28T11:40:57.289Z,6.12
2022-10-28T11:43:44.982Z,6.20
2022-10-28T11:46:51.937Z,7.90
2022-10-28T11:49:58.024Z,6.47
2022-10-28T11:52:45.160Z,7.60
2022-10-28T11:55:18.566Z,6.60
2022-10-28T11:58:19.206Z,5.65
2022-10-28T12:01:07.549Z,6.08
2022-10-28T12:03:49.793Z,5.50
2022-10-28T12:06:39.636Z,5.15
2022-10-28T12:09:21.890Z,6.40
2022-10-28T12:12:03.892Z,6.37
2022-10-28T12:14:52.389Z,6.15
2022-10-28T12:17:37.547Z,6.85
2022-10-28T12:20:13.868Z,6.12
2022-10-28T12:23:02.423Z,6.00
2022-10-28T12:25:37.189Z,7.08
2022-10-28T12:28:22.680Z,6.53
2022-10-28T12:30:55.223Z,5.83
2022-10-28T12:33:37.926Z,6.10
2022-10-28T12:36:13.992Z,6.40
2022-10-28T12:39:08.418Z,6.70
2022-10-28T12:42:06.992Z,5.70
2022-10-28T12:44:42.525Z,6.80
2022-10-28T12:47:36.698Z,6.40
2022-10-28T12:50:17.785Z,6.55
2022-10-28T12:53:03.113Z,6.00
2022-10-28T12:55:48.549Z,6.40
2022-10-28T12:58:27.715Z,7.10
2022-10-28T13:01:03.687Z,7.17
2022-10-28T13:03:35.064Z,6.78
2022-10-28T13:09:28.207Z,7.60
2022-10-28T13:12:22.745Z,7.25
2022-10-28T13:15:18.806Z,7.90
2022-10-28T13:18:02.980Z,7.70
2022-10-28T13:21:01.296Z,9.75
2022-10-28T13:23:51.140Z,10.85
2022-10-28T13:26:27.094Z,11.00
2022-10-28T13:29:03.511Z,11.28
2022-10-28T13:31:48.603Z,10.80
2022-10-28T13:34:23.622Z,10.28
2022-10-28T13:37:08.782Z,10.30
2022-10-28T13:39:56.143Z,11.55
2022-10-28T13:42:38.183Z,11.10
2022-10-28T13:45:11.655Z,10.20
2022-10-28T13:48:04.905Z,9.85
2022-10-28T13:50:38.662Z,10.30
2022-10-28T13:53:35.228Z,9.83
2022-10-28T13:56:29.490Z,10.75
2022-10-28T13:59:02.809Z,11.57
2022-10-28T14:02:01.433Z,10.88
2022-10-28T14:04:41.737Z,11.10
2022-10-28T14:07:17.502Z,10.90
2022-10-28T14:09:48.785Z,11.37
2022-10-28T14:12:28.128Z,10.28
2022-10-28T14:15:04.477Z,11.70
2022-10-28T14:17:43.887Z,11.65
2022-10-28T14:20:28.142Z,11.12
2022-10-28T14:23:00.343Z,13.00
2022-10-28T14:25:50.378Z,12.18
2022-10-28T14:28:39.468Z,12.05
2022-10-28T14:31:19.160Z,11.83
2022-10-28T14:33:57.478Z,12.60
2022-10-28T14:36:50.355Z,12.60
2022-10-28T14:39:38.603Z,12.80
2022-10-28T14:42:33.317Z,12.33
2022-10-28T14:45:23.267Z,12.43
2022-10-28T14:48:27.103Z,13.13
2022-10-28T14:50:58.684Z,13.13
2022-10-28T14:53:38.141Z,14.47
2022-10-28T14:56:19.770Z,13.80
2022-10-28T14:58:51.906Z,13.93
2022-10-28T15:01:37.552Z,14.58
2022-10-28T15:04:11.083Z,14.55
2022-10-28T15:06:51.886Z,15.18
2022-10-28T15:09:41.063Z,13.65
2022-10-28T15:12:21.181Z,14.03
2022-10-28T15:14:59.281Z,12.73
2022-10-28T15:17:43.863Z,12.85
2022-10-28T15:20:29.347Z,12.13
2022-10-28T15:23:25.231Z,12.82
2022-10-28T15:26:18.167Z,11.60
2022-10-28T15:28:53.113Z,10.85
2022-10-28T15:31:34.639Z,12.00
2022-10-28T15:37:06.749Z,12.82
2022-10-28T15:39:32.356Z,11.40
2022-10-28T15:42:03.914Z,11.60
2022-10-28T15:44:41.892Z,12.20
2022-10-28T15:47:36.034Z,11.57
2022-10-28T15:50:32.491Z,12.20
2022-10-28T15:53:15.203Z,13.55
2022-10-28T15:58:32.249Z,12.85
2022-10-28T16:01:03.169Z,13.00
2022-10-28T16:03:48.202Z,13.78
2022-10-28T16:06:33.177Z,14.25
2022-10-28T16:09:21.760Z,13.72
2022-10-28T16:12:00.844Z,13.50
2022-10-28T16:14:49.919Z,13.05
2022-10-28T16:17:27.931Z,13.13
2022-10-28T16:20:18.745Z,13.65
2022-10-28T16:22:56.710Z,13.38
2022-10-28T16:25:42.461Z,12.58
2022-10-28T16:31:21.627Z,12.90
2022-10-28T16:33:52.808Z,13.45
2022-10-28T16:36:23.558Z,12.75
2022-10-28T16:38:54.756Z,12.35
2022-10-28T16:41:29.339Z,12.80
2022-10-28T16:44:00.208Z,12.50
2022-10-28T16:46:31.255Z,12.23
2022-10-28T16:49:02.501Z,12.25
2022-10-28T16:51:33.529Z,11.70
2022-10-28T16:54:06.467Z,11.78
2022-10-28T16:56:37.444Z,10.65
2022-10-28T16:59:08.352Z,11.57
2022-10-28T17:01:39.374Z,11.05
2022-10-28T17:04:13.419Z,10.65
2022-10-28T17:06:43.806Z,10.95
2022-10-28T17:09:19.105Z,10.45
2022-10-28T17:11:51.137Z,10.25
2022-10-28T17:14:23.554Z,10.50
2022-10-28T17:16:54.543Z,9.93
2022-10-28T17:19:27.004Z,10.30
2022-10-28T17:21:57.806Z,10.65
2022-10-28T17:24:28.607Z,9.80
2022-10-28T17:26:59.434Z,10.80
2022-10-28T17:29:30.704Z,9.95
2022-10-28T17:32:01.565Z,10.00
2022-10-28T17:34:32.490Z,11.43
2022-10-28T17:37:06.381Z,10.23
2022-10-28T17:39:37.716Z,10.10
2022-10-28T17:42:08.548Z,9.63
2022-10-28T17:44:41.084Z,10.08
2022-10-28T17:47:13.290Z,9.53
2022-10-28T17:49:46.669Z,9.50
2022-10-28T17:52:17.558Z,9.73
2022-10-28T17:54:48.353Z,9.65
2022-10-28T17:57:22.003Z,10.40
2022-10-28T17:59:52.853Z,9.43
2022-10-28T18:02:24.811Z,11.00
2022-10-28T18:04:55.874Z,9.33
2022-10-28T18:07:27.894Z,10.40
2022-10-28T18:09:58.666Z,10.80
2022-10-28T18:12:31.281Z,9.88
2022-10-28T18:15:02.127Z,9.20
2022-10-28T18:17:32.950Z,9.15
2022-10-28T18:20:03.784Z,8.80
2022-10-28T18:22:34.603Z,9.15
2022-10-28T18:25:05.550Z,8.78
2022-10-28T18:27:36.929Z,8.90
2022-10-28T18:30:08.420Z,9.00
2022-10-28T18:32:39.274Z,8.95
2022-10-28T18:35:10.654Z,8.43
2022-10-28T18:37:41.508Z,9.15
2022-10-28T18:40:13.493Z,8.45
2022-10-28T18:42:45.876Z,8.10
2022-10-28T18:45:16.723Z,8.53
2022-10-28T18:47:50.900Z,8.73
2022-10-28T18:50:21.707Z,8.48
2022-10-28T18:53:13.662Z,8.18
2022-10-28T18:55:44.579Z,8.50
2022-10-28T18:58:16.373Z,8.45
2022-10-28T19:00:47.287Z,7.78
2022-10-28T19:03:23.503Z,7.85
2022-10-28T19:05:55.558Z,8.65
2022-10-28T19:08:26.367Z,8.50
2022-10-28T19:11:01.254Z,8.38
2022-10-28T19:13:33.578Z,8.05
2022-10-28T19:16:04.638Z,8.40
2022-10-28T19:18:37.199Z,8.68
2022-10-28T19:21:11.779Z,8.33
2022-10-28T19:23:42.971Z,8.70
2022-10-28T19:26:15.406Z,7.80
2022-10-28T19:28:49.042Z,7.97
2022-10-28T19:31:27.629Z,8.80
2022-10-28T19:33:59.185Z,8.78
2022-10-28T19:36:31.902Z,8.90
2022-10-28T19:39:02.934Z,8.43
2022-10-28T19:41:40.017Z,8.60
2022-10-28T19:44:10.962Z,7.87
2022-10-28T19:46:41.789Z,7.75
2022-10-28T19:49:12.572Z,8.40
2022-10-28T19:51:44.394Z,8.10
2022-10-28T19:54:16.881Z,8.95
2022-10-28T19:56:48.802Z,9.00
2022-10-28T19:59:19.705Z,9.10
2022-10-28T20:01:51.307Z,8.80
2022-10-28T20:04:22.729Z,9.35
2022-10-28T20:06:53.531Z,8.78
2022-10-28T20:09:28.763Z,8.25
2022-10-28T20:11:56.551Z,8.80
2022-10-28T20:14:27.357Z,8.93
2022-10-28T20:17:00.351Z,8.75
2022-10-28T20:19:30.744Z,8.38
2022-10-28T20:22:01.598Z,8.35
2022-10-28T20:24:32.385Z,9.20
2022-10-28T20:27:03.235Z,8.60
2022-10-28T20:29:34.001Z,8.70
2022-10-28T20:32:04.819Z,9.00
2022-10-28T20:34:35.616Z,9.03
2022-10-28T20:37:06.523Z,8.28
2022-10-28T20:39:37.342Z,8.98
2022-10-28T20:42:08.359Z,9.30
2022-10-28T20:44:40.945Z,9.00
2022-10-28T20:47:11.652Z,8.85
2022-10-28T20:49:43.814Z,8.93
2022-10-28T20:52:15.924Z,8.45
2022-10-28T20:54:46.951Z,8.55
2022-10-28T20:57:17.806Z,8.78
2022-10-28T20:59:50.033Z,7.80
2022-10-28T21:02:21.041Z,8.50
2022-10-28T21:04:52.126Z,8.20
2022-10-28T21:07:22.872Z,8.03
2022-10-28T21:09:53.665Z,8.38
2022-10-28T21:12:24.494Z,7.90
2022-10-28T21:14:55.382Z,8.33
2022-10-28T21:17:26.214Z,8.10
2022-10-28T21:19:57.118Z,8.20
2022-10-28T21:22:28.064Z,8.65
2022-10-28T21:25:01.287Z,8.48
2022-10-28T21:27:32.946Z,8.48
2022-10-28T21:30:03.803Z,8.88
2022-10-28T21:32:39.019Z,8.30
2022-10-28T21:35:12.219Z,9.10
2022-10-28T21:37:43.019Z,8.60
2022-10-28T21:40:15.080Z,8.85
2022-10-28T21:42:54.246Z,10.53
2022-10-28T21:45:25.485Z,10.55
2022-10-28T21:48:01.838Z,13.00
2022-10-28T21:50:32.658Z,13.53
2022-10-28T21:53:04.854Z,12.20
2022-10-28T21:55:46.178Z,10.68
2022-10-28T21:58:08.036Z,9.90
2022-10-28T22:00:41.055Z,9.83
2022-10-28T22:03:14.420Z,9.70
2022-10-28T22:05:52.829Z,9.00
2022-10-28T22:08:23.819Z,8.35
2022-10-28T22:11:07.370Z,9.15
2022-10-28T22:13:40.507Z,9.53
2022-10-28T22:16:18.062Z,10.15
2022-10-28T22:18:49.283Z,10.13
2022-10-28T22:21:22.721Z,10.23
2022-10-28T22:23:53.884Z,10.03
2022-10-28T22:26:33.250Z,9.50
2022-10-28T22:29:04.107Z,9.73
2022-10-28T22:31:35.741Z,10.20
2022-10-28T22:34:07.972Z,10.28
2022-10-28T22:36:38.950Z,10.78
2022-10-28T22:39:10.097Z,10.82
2022-10-28T22:41:48.754Z,9.95
2022-10-28T22:44:15.556Z,10.20
2022-10-28T22:46:46.652Z,10.32
2022-10-28T22:49:17.953Z,9.93
2022-10-28T22:51:48.889Z,10.45
2022-10-28T22:54:20.837Z,10.05
2022-10-28T22:56:54.489Z,15.60
2022-10-28T22:59:28.565Z,17.50
2022-10-28T23:02:02.837Z,16.35
2022-10-28T23:04:33.924Z,12.07
2022-10-28T23:07:04.965Z,11.63
2022-10-28T23:09:36.520Z,11.33
2022-10-28T23:12:07.867Z,10.80
2022-10-28T23:14:38.907Z,10.28
2022-10-28T23:17:12.613Z,10.98
2022-10-28T23:19:43.568Z,10.25
2022-10-28T23:22:14.591Z,10.15
2022-10-28T23:24:45.532Z,10.53
2022-10-28T23:27:16.463Z,11.03
2022-10-28T23:29:47.414Z,11.22
2022-10-28T23:32:18.404Z,10.88
2022-10-28T23:34:49.287Z,12.00
2022-10-28T23:37:20.265Z,13.15
2022-10-28T23:39:51.267Z,13.35
2022-10-28T23:42:24.100Z,13.68
2022-10-28T23:44:55.083Z,14.18
2022-10-28T23:47:25.966Z,14.78
2022-10-28T23:49:58.784Z,15.30
2022-10-28T23:52:29.238Z,14.98
2022-10-28T23:55:00.215Z,14.40
2022-10-28T23:57:31.116Z,13.98
